This is the latest recevied weather packets stored in our database for station/object VK3AGD-9. If no packets are shown the sender has not sent any weather packets the latest 10 day(s).
| Time | Temp. | Humidity | Pressure | Rain* | Wind** | Luminosity | Snow |
|---|---|---|---|---|---|---|---|
| 1777563988 | 21.11° C | 53% | - | 0 mm | - | - | - |
| 1777563028 | 21.11° C | 54% | - | 0 mm | - | - | - |
| 1777562164 | 21.11° C | 53% | - | 0 mm | - | - | - |
| 1777561300 | 21.11° C | 54% | - | 0 mm | - | - | - |
| 1777560340 | 21.11° C | 53% | - | 0 mm | - | - | - |
| 1777559477 | 20.56° C | 53% | - | 0 mm | - | - | - |
| 1777558612 | 20.56° C | 55% | - | 0 mm | - | - | - |
| 1777557653 | 20° C | 56% | - | 0 mm | - | - | - |
| 1777556789 | 19.44° C | 59% | - | 0 mm | - | - | - |
| 1777555827 | 18.89° C | 62% | - | 0 mm | - | - | - |
| 1777554965 | 18.89° C | 63% | - | 0 mm | - | - | - |
| 1777554101 | 18.33° C | 64% | - | 0 mm | - | - | - |
| 1777553140 | 18.89° C | 64% | - | 0 mm | - | - | - |
| 1777552277 | 18.33° C | 65% | - | 0 mm | - | - | - |
| 1777551412 | 17.78° C | 67% | - | 0 mm | - | - | - |
| 1777550452 | 17.78° C | 68% | - | 0 mm | - | - | - |
| 1777549588 | 17.78° C | 68% | - | 0 mm | - | - | - |
| 1777548628 | 17.22° C | 70% | - | 0 mm | - | - | - |
| 1777547764 | 16.67° C | 72% | - | 0 mm | - | - | - |
| 1777546900 | 16.67° C | 72% | - | 0 mm | - | - | - |
| 1777545940 | 16.67° C | 70% | - | 0 mm | - | - | - |
| 1777545076 | 16.11° C | 73% | - | 0 mm | - | - | - |
| 1777544212 | 16.11° C | 73% | - | 0 mm | - | - | - |
| 1777543252 | 16.67° C | 72% | - | 0 mm | - | - | - |
| 1777542388 | 16.67° C | 69% | - | 0 mm | - | - | - |
* Rain latest hour (hover to see other rain measurements)
** Current wind speed in m/s (hover to see current wind gust speed)